Station VDXA2 - Valdez, AK Image indicating link to RSS feed of recent meteorological observations for station VDXA2


Conditions at VDXA2 as of
(6:52 am AKDT)
1452 GMT on 04/17/2026:
     

Click on the graph icon in the table below to see a time series plot of the last five days of that observation.

5-day plot - Wind Speed Wind Speed (WSPD): 0.0 kts
5-day plot - Wind Gust Wind Gust (GST): 1.9 kts
5-day plot - Air Temperature Air Temperature (ATMP): 33.3 °F
5-day plot - Dew Point Dew Point (DEWP): 33.3 °F
5-day plot - Wind Speed at 10 Meters Wind Speed at 10 meters (WSPD10M): 1.9 kts
5-day plot - Wind Speed at 20 Meters Wind Speed at 20 meters (WSPD20M): 1.9 kts
5-day plot -  Wind Speed, Wind Gust and Atmospheric Pressure Combined plot of Wind Speed, Gust, and Air Pressure
Previous observations
TIME
(AKDT)
5-day plot - Wind Direction
WDIR
 
5-day plot - Wind Speed
WSPD
kts
5-day plot - Wind Gust
GST
kts
5-day plot - Wave Height
WVHT
ft
5-day plot - Dominant Wave Period
DPD
sec
5-day plot - Average Wave Period
APD
sec
5-day plot - Mean Wave Direction
MWD
 
5-day plot - Atmospheric Pressure
PRES
in
5-day plot - Pressure Tendency
PTDY
in
5-day plot - Air Temperature
ATMP
°F
5-day plot - Water Temperature
WTMP
°F
5-day plot - Dew Point
DEWP
°F
5-day plot - Salinity
SAL
psu
5-day plot - Visibility
VIS
nmi
5-day plot - Tide (above MLLW)
TIDE
ft
2026-04-17 06:42 am NW 1.0 1.9------ 33.1- 33.1---
2026-04-17 06:32 amNNW 1.0 1.9------ 33.1- 33.1---
2026-04-17 06:22 am- 0.0 1.0------ 33.4- 33.4---
2026-04-17 06:12 am- 0.0 1.9------ 33.3- 33.3---
2026-04-17 06:02 am SW 1.0 1.9------ 33.1- 33.1---
2026-04-17 05:52 amSSW 1.0 1.9------ 33.1- 33.1---
2026-04-17 05:42 amSSW 1.0 1.9------ 33.1- 33.1---
2026-04-17 05:32 am SW 1.0 2.9------ 33.3- 33.3---
2026-04-17 05:22 am S 1.0 1.9------ 33.3- 33.3---
2026-04-17 05:12 am- 0.0 1.9------ 33.6- 33.6---
2026-04-17 05:02 am- 0.0 1.0------ 33.6- 33.6---
2026-04-17 04:52 am- 0.0 1.9------ 33.6- 33.6---
2026-04-17 04:42 am- 0.0 1.0------ 33.4- 33.4---
2026-04-17 04:32 amSSW 1.0 1.9------ 33.4- 33.4---
2026-04-17 04:22 am SW 1.0 1.9------ 33.6- 33.6---
2026-04-17 04:12 am S 1.9 1.9------ 33.6- 33.6---
2026-04-17 04:02 amSSW 1.9 2.9------ 33.6- 33.6---
2026-04-17 03:52 am S 1.0 2.9------ 34.0- 34.0---
2026-04-17 03:42 amSSW 1.0 1.9------ 34.0- 34.0---
2026-04-17 03:32 amSSW 1.9 2.9------ 34.0- 34.0---
2026-04-17 03:22 am- 0.0 1.9------ 34.2- 34.2---
2026-04-17 03:12 am- 0.0 1.0------ 34.3- 34.3---
2026-04-17 03:02 am- 0.0 1.0------ 34.3- 34.3---
2026-04-17 02:52 am- 0.0 1.0------ 34.2- 34.2---
2026-04-17 02:42 amSSE 1.0 1.9------ 34.2- 34.2---
2026-04-17 02:32 am S 1.9 1.9------ 34.2- 34.2---
2026-04-17 02:22 am S 1.0 1.9------ 34.2- 34.2---
2026-04-17 02:12 am- 0.0 1.9------ 34.3- 34.3---
2026-04-17 02:02 am- 0.0 1.0------ 34.7- 34.7---
2026-04-17 01:52 am- 0.0 1.0------ 34.5- 34.5---
2026-04-17 01:42 am- 0.0 1.0------ 34.5- 34.5---
2026-04-17 01:32 am- 0.0 1.9------ 34.5- 34.5---
2026-04-17 01:22 am- 0.0 1.9------ 34.7- 34.7---
2026-04-17 01:12 amSSE 1.0 1.9------ 34.7- 34.7---
2026-04-17 01:02 am- 0.0 1.9------ 34.9- 34.9---
2026-04-17 12:52 am- 0.0 1.0------ 34.9- 34.9---
2026-04-17 12:42 am- 0.0 1.9------ 34.7- 34.7---
2026-04-17 12:32 am E 1.0 1.9------ 34.7- 34.7---
2026-04-17 12:22 am SE 1.0 2.9------ 34.7- 34.7---
2026-04-17 12:12 am- 0.0 1.0------ 34.9- 34.9---
2026-04-17 12:02 am- 0.0 1.9------ 34.9- 34.9---
2026-04-16 11:52 pm- 0.0 1.0------ 35.1- 35.1---
2026-04-16 11:42 pm- 0.0 1.0------ 34.9- 34.9---
2026-04-16 11:32 pm- 0.0 1.9------ 34.9- 34.9---
2026-04-16 11:22 pm- 0.0 1.9------ 34.9- 34.9---
2026-04-16 11:12 pm- 0.0 1.0------ 35.1- 35.1---
2026-04-16 11:02 pm- 0.0 1.0------ 35.1- 35.1---
2026-04-16 10:52 pm- 0.0 1.0------ 35.1- 35.1---
2026-04-16 10:42 pm- 0.0 1.0------ 35.1- 35.1---
2026-04-16 10:32 pm- 0.0 1.9------ 35.1- 35.1---
2026-04-16 10:22 pm- 0.0 1.9------ 35.1- 35.1---
2026-04-16 10:12 pm- 0.0 1.0------ 35.2- 35.2---
2026-04-16 10:02 pm- 0.0 1.9------ 35.1- 35.1---
2026-04-16 09:52 pm- 0.0 1.0------ 35.4- 35.4---
2026-04-16 09:42 pm- 0.0 1.9------ 35.4- 35.4---
2026-04-16 09:32 pm- 0.0 1.9------ 35.4- 35.4---
2026-04-16 09:22 pm- 0.0 1.0------ 35.4- 35.4---
2026-04-16 09:12 pm- 0.0 1.0------ 35.2- 35.2---
2026-04-16 09:02 pm S 1.0 2.9------ 35.2- 35.2---
2026-04-16 08:52 pm W 1.0 2.9------ 35.2- 35.2---
2026-04-16 08:42 pm SW 1.0 2.9------ 35.4- 35.4---
2026-04-16 08:32 pm- 0.0 1.9------ 35.8- 35.8---
2026-04-16 08:22 pm S 1.0 1.9------ 36.0- 36.0---
2026-04-16 08:12 pm- 0.0 1.0------ 36.0- 36.0---
2026-04-16 08:02 pm- 0.0 1.0------ 36.3- 36.3---
2026-04-16 07:52 pm- 0.0 1.9------ 36.0- 36.0---
2026-04-16 07:42 pm- 0.0 1.0------ 36.5- 36.5---
2026-04-16 07:32 pm- 0.0 1.9------ 36.5- 36.5---
2026-04-16 07:22 pm- 0.0 2.9------ 36.3- 36.3---
2026-04-16 07:12 pmESE 1.9 4.1------ 36.1- 36.1---
2026-04-16 07:02 pm SE 2.9 5.1------ 35.8- 35.8---
2026-04-16 06:52 pmESE 1.9 4.1------ 36.0- 36.0---
2026-04-16 06:42 pm E 1.9 2.9------ 36.5- 36.5---
2026-04-16 06:32 pmESE 1.0 4.1------ 36.5- 36.5---
2026-04-16 06:22 pm- 0.0 1.9------ 37.4- 37.4---
2026-04-16 06:12 pm- 0.0 1.9------ 36.9- 36.9---
2026-04-16 06:02 pm- 0.0 1.9------ 36.9- 36.9---
2026-04-16 05:52 pm- 0.0 1.9------ 36.9- 36.9---
2026-04-16 05:42 pmSSW 1.0 2.9------ 36.7- 36.7---
2026-04-16 05:32 pm S 1.0 1.9------ 36.3- 36.3---
2026-04-16 05:22 pm S 1.9 4.1------ 36.3- 36.3---
2026-04-16 05:12 pmSSW 1.9 4.1------ 36.3- 36.3---
2026-04-16 05:02 pmSSW 2.9 5.1------ 36.7- 36.7---
2026-04-16 04:52 pmSSW 2.9 6.0------ 36.5- 36.5---
2026-04-16 04:42 pmSSW 2.9 5.1------ 36.9- 36.9---
2026-04-16 04:32 pm--------- 36.9- 36.9---
2026-04-16 04:22 pmSSW 1.9 4.1------ 36.9- 36.9---
2026-04-16 04:12 pmSSW 1.9 4.1------ 36.9- 36.9---
2026-04-16 04:02 pm S 1.9 4.1------ 37.2- 37.2---
2026-04-16 03:52 pmSSE 1.9 4.1------ 36.9- 36.9---
2026-04-16 03:42 pm S 1.9 4.1------ 37.0- 37.0---
2026-04-16 03:32 pm S 2.9 5.1------ 36.9- 36.9---
2026-04-16 03:22 pm SW 2.9 5.1------ 37.0- 37.0---
2026-04-16 03:12 pmSSW 2.9 6.0------ 36.9- 36.9---
2026-04-16 03:02 pmSSW 2.9 5.1------ 36.9- 36.9---
2026-04-16 02:52 pmSSW 2.9 5.1------ 36.9- 36.9---
2026-04-16 02:42 pmSSW 4.1 6.0------ 36.9- 36.9---
2026-04-16 02:32 pmSSW 4.1 7.0------ 36.7- 36.7---
2026-04-16 02:22 pmSSW 4.1 7.0------ 36.7- 36.7---
2026-04-16 02:12 pmSSW 4.1 6.0------ 36.9- 36.9---
2026-04-16 02:02 pmSSW 4.1 6.0------ 36.7- 36.7---
2026-04-16 01:52 pmSSW 4.1 6.0------ 36.9- 36.9---
2026-04-16 01:42 pm SW 4.1 6.0------ 36.9- 36.9---
2026-04-16 01:32 pmSSW 4.1 7.0------ 36.7- 36.7---
2026-04-16 01:22 pmSSW 4.1 6.0------ 36.9- 36.9---
2026-04-16 01:12 pmSSW 4.1 6.0------ 36.7- 36.7---
2026-04-16 01:02 pmSSW 4.1 6.0------ 36.7- 36.7---
2026-04-16 12:52 pmSSW 2.9 6.0------ 36.9- 36.9---
2026-04-16 12:42 pm S 2.9 6.0------ 37.0- 37.0---
2026-04-16 12:32 pm S 2.9 5.1------ 37.4- 37.4---
2026-04-16 12:22 pm S 2.9 4.1------ 37.6- 37.6---
2026-04-16 12:12 pmSSW 2.9 4.1------ 37.4- 37.4---
2026-04-16 12:02 pm S 2.9 4.1------ 37.2- 37.2---
2026-04-16 11:52 amSSW 2.9 4.1------ 37.6- 37.6---
2026-04-16 11:42 am S 1.9 4.1------ 37.6- 37.6---
2026-04-16 11:32 am S 2.9 5.1------ 37.6- 37.6---
2026-04-16 11:22 am S 2.9 4.1------ 37.6- 37.6---
2026-04-16 11:12 am S 1.9 4.1------ 37.8- 37.8---
2026-04-16 11:02 amSSW 1.9 5.1------ 37.4- 37.4---
2026-04-16 10:52 am S 1.9 4.1------ 37.4- 37.4---
2026-04-16 10:42 am S 1.9 2.9------ 36.9- 36.9---
2026-04-16 10:32 amSSW 1.9 2.9------ 36.9- 36.9---
2026-04-16 10:22 amSSW 1.9 2.9------ 36.7- 36.7---
2026-04-16 10:12 am S 1.9 4.1------ 36.1- 36.1---
2026-04-16 10:02 amSSW 2.9 4.1------ 36.1- 36.1---
2026-04-16 09:52 am SW 1.9 4.1------ 36.1- 36.1---
2026-04-16 09:42 am SW 1.9 5.1------ 36.5- 36.5---
2026-04-16 09:32 amWSW 1.0 2.9------ 36.7- 36.7---
2026-04-16 09:22 amSSW 1.0 2.9------ 36.7- 36.7---
2026-04-16 09:12 am- 0.0 1.9------ 36.5- 36.5---
2026-04-16 09:02 am- 0.0 1.0------ 36.7- 36.7---
2026-04-16 08:52 am- 0.0 1.9------ 36.1- 36.1---
2026-04-16 08:42 am- 0.0 1.0------ 35.8- 35.8---
2026-04-16 08:32 am- 0.0 1.9------ 35.6- 35.6---
2026-04-16 08:22 amNNW 1.0 2.9------ 35.1- 35.1---
2026-04-16 08:12 am- 0.0 1.9------ 35.1- 35.1---
2026-04-16 08:02 am N 1.0 1.9------ 34.9- 34.9---
2026-04-16 07:52 am- 0.0 1.0------ 35.1- 35.1---
2026-04-16 07:42 amNNW 1.0 1.9------ 34.5- 34.5---
2026-04-16 07:32 amNNW 1.0 1.9------ 34.9- 34.9---
2026-04-16 07:22 am- 0.0 1.0------ 34.5- 34.5---
2026-04-16 07:12 am N 1.0 1.9------ 34.9- 34.9---
2026-04-16 07:02 am- 0.0 1.9------ 35.1- 35.1---
2026-04-16 06:52 am E 1.0 2.9------ 34.9- 34.9---